Ana Sayfa
METAR-TAF:

METAR-TAF

Havaalanları :

Burlington-Alamance Regional Airport

Burlington, Kuzey Carolina, Amerika Birleşik Devletleri

Enlem: 36-02-52N, Boylam: 079-28-26W, yükseklik: 188 m

Güncel hava durumu gözlemi

Rapor saat 20:54 UTC de 28 dakika önce yapıldı.
Rüzgar güney/güneybatıdan 8 kt
Sıcaklık 11°C
Nem 62%
Basınç 1016 hPa
Görüş mesafesi: 16.1 km
2700 ft yükseklikte çok bulutlu
hafif yağmur

METAR: KBUY 242054Z AUTO 21008KT 10SM -RA OVC027 11/04 A3000 RMK AO2 RAB48 SLP160 P0000 60000 T01110044 56014

Saat: 16:22 (21:22 UTC)


TAF: eksik

4.000'den fazla havaalanı için hava durumu gözlemleri ve tahminleri (METAR ve TAF raporları).

Kullanılabilir istasyonlar harita üzerinde sarı ve kırmızı noktalarla gösterilir.

İstasyonun adını görmek için fareyi noktanın üzerinde gezdirin.

Sonrasında hava gözlem ve tahminlerini görmek için tıklayın.

Haritayı değiştirmek için: yaklaştırmak için siyah artı işaretli yeşil düğmeye ve uzaklaştırmak için de eksi işaretli düğmeye hızla tıklayın; bitişik haritalar için yeşil okları kullanın.


METAR-TAF: